KBFM/BFM METAR and TAF weather

Enter ICAO airport designator
Station Type Date Time Source
KBFM METAR 2019/09/20 09:53 UTC NOAA

KBFM 200953Z 08016KT 10SM CLR 25/18 A3010 RMK AO2 SLP192 T02500183


Station Type Date Time Source
KBFM Decoded METAR 2019/09/20 09:53 UTC NOAA

MOBILE DOWNTOWN AIRPORT, AL, United States (KBFM) 30-38N 88-04W 20M
Sep 20, 2019 - 05:53 AM EDT / 2019.09.20 0953 UTC
Wind: from the E (080 degrees) at 18 MPH (16 KT):0
Visibility: 10 mile(s):0
Sky conditions: clear
Temperature: 77.0 F (25.0 C)
Dew Point: 64.9 F (18.3 C)
Relative Humidity: 66%
Pressure (altimeter): 30.1 in. Hg (1019 hPa)
ob: KBFM 200953Z 08016KT 10SM CLR 25/18 A3010 RMK AO2 SLP192 T02500183
cycle: 10

Station Type Date Time Source
KBFM TAF 2019/09/20 06:22 UTC NOAA

TAF KBFM 200520Z 2006/2106 VRB03KT P6SM FEW050 SCT100
FM200900 07009KT P6SM FEW050 SCT250
FM201500 11013G19KT P6SM FEW250

Example: see airport list